sensor_id;sensor_type;location;lat;lon;timestamp;pressure;altitude;pressure_sealevel;temperature;humidity
21236;BME280;10775;42.678;26.324;2023-03-13T00:04:00;98943.72;;;6.40;60.75
21236;BME280;10775;42.678;26.324;2023-03-13T00:06:29;98947.13;;;6.21;59.98
21236;BME280;10775;42.678;26.324;2023-03-13T00:08:56;98950.56;;;6.10;60.72
21236;BME280;10775;42.678;26.324;2023-03-13T00:11:22;98952.28;;;6.05;62.78
21236;BME280;10775;42.678;26.324;2023-03-13T00:13:47;98952.31;;;6.04;60.27
21236;BME280;10775;42.678;26.324;2023-03-13T00:16:15;98964.41;;;6.02;60.37
21236;BME280;10775;42.678;26.324;2023-03-13T00:18:49;98956.63;;;6.02;60.39
21236;BME280;10775;42.678;26.324;2023-03-13T00:21:17;98962.66;;;5.99;60.25
21236;BME280;10775;42.678;26.324;2023-03-13T00:23:43;98961.81;;;6.06;60.21
21236;BME280;10775;42.678;26.324;2023-03-13T00:26:10;98963.53;;;6.01;60.21
21236;BME280;10775;42.678;26.324;2023-03-13T00:28:38;98966.16;;;6.18;68.66
21236;BME280;10775;42.678;26.324;2023-03-13T00:33:34;98966.19;;;6.14;63.52
21236;BME280;10775;42.678;26.324;2023-03-13T00:36:02;98957.50;;;6.04;61.11
21236;BME280;10775;42.678;26.324;2023-03-13T00:38:29;98961.78;;;5.97;60.83
21236;BME280;10775;42.678;26.324;2023-03-13T00:41:12;98957.47;;;5.96;61.05
21236;BME280;10775;42.678;26.324;2023-03-13T00:43:39;98963.59;;;6.14;63.03
21236;BME280;10775;42.678;26.324;2023-03-13T00:46:05;98962.72;;;6.15;61.82
21236;BME280;10775;42.678;26.324;2023-03-13T00:48:31;98960.94;;;6.04;60.74
21236;BME280;10775;42.678;26.324;2023-03-13T00:50:57;98956.63;;;5.99;61.87
21236;BME280;10775;42.678;26.324;2023-03-13T00:53:23;98968.72;;;6.03;60.52
21236;BME280;10775;42.678;26.324;2023-03-13T00:58:20;98959.22;;;5.99;60.82
21236;BME280;10775;42.678;26.324;2023-03-13T01:00:46;98972.22;;;6.13;72.44
21236;BME280;10775;42.678;26.324;2023-03-13T01:03:11;98972.19;;;5.99;61.75
21236;BME280;10775;42.678;26.324;2023-03-13T01:05:37;98960.88;;;5.86;61.22
21236;BME280;10775;42.678;26.324;2023-03-13T01:08:02;98969.56;;;5.97;72.94
21236;BME280;10775;42.678;26.324;2023-03-13T01:10:28;98969.56;;;6.00;68.96
21236;BME280;10775;42.678;26.324;2023-03-13T01:12:53;98966.06;;;5.86;62.36
21236;BME280;10775;42.678;26.324;2023-03-13T01:15:19;98976.44;;;5.83;66.52
21236;BME280;10775;42.678;26.324;2023-03-13T01:17:45;98967.03;;;6.11;82.62
21236;BME280;10775;42.678;26.324;2023-03-13T01:20:11;98972.19;;;5.96;63.62
21236;BME280;10775;42.678;26.324;2023-03-13T01:22:37;98971.19;;;5.77;62.33
21236;BME280;10775;42.678;26.324;2023-03-13T01:25:02;98970.34;;;5.70;62.80
21236;BME280;10775;42.678;26.324;2023-03-13T01:27:28;98971.19;;;5.71;62.54
21236;BME280;10775;42.678;26.324;2023-03-13T01:29:54;98977.28;;;5.79;66.69
21236;BME280;10775;42.678;26.324;2023-03-13T01:32:19;98972.06;;;5.74;62.17
21236;BME280;10775;42.678;26.324;2023-03-13T01:34:45;98982.56;;;5.99;73.52
21236;BME280;10775;42.678;26.324;2023-03-13T01:37:10;98972.13;;;5.93;68.45
21236;BME280;10775;42.678;26.324;2023-03-13T01:39:36;98984.16;;;5.69;62.59
21236;BME280;10775;42.678;26.324;2023-03-13T01:42:03;98984.97;;;5.63;63.02
21236;BME280;10775;42.678;26.324;2023-03-13T01:44:29;98988.41;;;5.53;62.56
21236;BME280;10775;42.678;26.324;2023-03-13T01:46:54;98999.63;;;5.51;64.52
21236;BME280;10775;42.678;26.324;2023-03-13T01:49:29;99002.19;;;5.46;64.20
21236;BME280;10775;42.678;26.324;2023-03-13T01:52:00;99006.59;;;5.64;70.70
21236;BME280;10775;42.678;26.324;2023-03-13T01:57:07;99009.16;;;5.59;64.67
21236;BME280;10775;42.678;26.324;2023-03-13T01:59:40;99015.16;;;5.49;63.12
21236;BME280;10775;42.678;26.324;2023-03-13T02:02:07;99021.22;;;5.45;64.66
21236;BME280;10775;42.678;26.324;2023-03-13T02:04:38;99022.16;;;5.64;74.64
21236;BME280;10775;42.678;26.324;2023-03-13T02:07:17;99022.09;;;5.50;71.28
21236;BME280;10775;42.678;26.324;2023-03-13T02:09:47;99033.28;;;5.40;63.46
21236;BME280;10775;42.678;26.324;2023-03-13T02:12:20;99034.13;;;5.37;63.37
21236;BME280;10775;42.678;26.324;2023-03-13T02:14:49;99035.84;;;5.38;64.10
21236;BME280;10775;42.678;26.324;2023-03-13T02:17:14;99042.75;;;5.32;63.47
21236;BME280;10775;42.678;26.324;2023-03-13T02:19:50;99048.78;;;5.29;63.08
21236;BME280;10775;42.678;26.324;2023-03-13T02:22:30;99055.66;;;5.29;63.62
21236;BME280;10775;42.678;26.324;2023-03-13T02:27:30;99057.47;;;5.39;68.26
21236;BME280;10775;42.678;26.324;2023-03-13T02:29:57;99078.09;;;5.22;63.74
21236;BME280;10775;42.678;26.324;2023-03-13T02:32:25;99074.59;;;5.17;63.98
21236;BME280;10775;42.678;26.324;2023-03-13T02:34:55;99073.97;;;5.52;84.54
21236;BME280;10775;42.678;26.324;2023-03-13T02:37:20;99087.63;;;5.26;65.48
21236;BME280;10775;42.678;26.324;2023-03-13T02:39:48;99082.31;;;5.11;64.63
21236;BME280;10775;42.678;26.324;2023-03-13T02:42:17;99091.00;;;5.14;65.75
21236;BME280;10775;42.678;26.324;2023-03-13T02:44:45;99083.16;;;5.08;64.06
21236;BME280;10775;42.678;26.324;2023-03-13T02:47:11;99090.13;;;5.15;68.79
21236;BME280;10775;42.678;26.324;2023-03-13T02:49:37;99085.88;;;5.22;71.08
21236;BME280;10775;42.678;26.324;2023-03-13T02:52:16;99093.78;;;5.37;76.59
21236;BME280;10775;42.678;26.324;2023-03-13T02:54:44;99092.84;;;5.31;67.16
21236;BME280;10775;42.678;26.324;2023-03-13T02:57:11;99102.38;;;5.33;74.96
21236;BME280;10775;42.678;26.324;2023-03-13T02:59:37;99097.19;;;5.32;70.45
21236;BME280;10775;42.678;26.324;2023-03-13T03:02:03;99102.38;;;5.32;71.29
21236;BME280;10775;42.678;26.324;2023-03-13T03:04:29;99109.25;;;5.31;68.35
21236;BME280;10775;42.678;26.324;2023-03-13T03:06:55;99110.13;;;5.27;65.70
21236;BME280;10775;42.678;26.324;2023-03-13T03:09:21;99114.47;;;5.33;69.54
21236;BME280;10775;42.678;26.324;2023-03-13T03:11:47;99118.88;;;5.46;76.94
21236;BME280;10775;42.678;26.324;2023-03-13T03:14:13;99116.34;;;5.54;76.30
21236;BME280;10775;42.678;26.324;2023-03-13T03:16:39;99118.19;;;5.69;75.15
21236;BME280;10775;42.678;26.324;2023-03-13T03:19:05;99114.69;;;5.63;76.95
21236;BME280;10775;42.678;26.324;2023-03-13T03:21:31;99121.56;;;5.55;82.71
21236;BME280;10775;42.678;26.324;2023-03-13T03:23:57;99108.47;;;5.40;79.57
21236;BME280;10775;42.678;26.324;2023-03-13T03:26:22;99101.66;;;5.53;79.44
21236;BME280;10775;42.678;26.324;2023-03-13T03:28:48;99106.72;;;5.37;74.14
21236;BME280;10775;42.678;26.324;2023-03-13T03:31:14;99109.19;;;5.20;67.73
21236;BME280;10775;42.678;26.324;2023-03-13T03:33:40;99110.03;;;5.21;75.78
21236;BME280;10775;42.678;26.324;2023-03-13T03:36:09;99114.28;;;5.10;67.76
21236;BME280;10775;42.678;26.324;2023-03-13T03:38:36;99107.25;;;4.98;67.70
21236;BME280;10775;42.678;26.324;2023-03-13T03:41:04;99115.13;;;5.07;72.18
21236;BME280;10775;42.678;26.324;2023-03-13T03:43:29;99116.03;;;5.12;77.35
21236;BME280;10775;42.678;26.324;2023-03-13T03:45:55;99116.88;;;5.13;75.26
21236;BME280;10775;42.678;26.324;2023-03-13T03:48:20;99123.28;;;5.53;90.28
21236;BME280;10775;42.678;26.324;2023-03-13T03:50:46;99130.13;;;5.42;76.97
21236;BME280;10775;42.678;26.324;2023-03-13T03:53:11;99118.13;;;5.59;85.37
21236;BME280;10775;42.678;26.324;2023-03-13T03:55:37;99127.47;;;5.34;81.78
21236;BME280;10775;42.678;26.324;2023-03-13T03:58:02;99140.63;;;5.63;91.92
21236;BME280;10775;42.678;26.324;2023-03-13T04:00:28;99141.59;;;5.79;93.56
21236;BME280;10775;42.678;26.324;2023-03-13T04:02:53;99141.56;;;5.75;89.12
21236;BME280;10775;42.678;26.324;2023-03-13T04:05:21;99145.78;;;5.59;91.61
21236;BME280;10775;42.678;26.324;2023-03-13T04:07:46;99155.25;;;5.51;89.45
21236;BME280;10775;42.678;26.324;2023-03-13T04:10:12;99151.81;;;5.56;90.21
21236;BME280;10775;42.678;26.324;2023-03-13T04:12:38;99149.41;;;5.78;94.09
21236;BME280;10775;42.678;26.324;2023-03-13T04:15:04;99163.13;;;5.63;80.21
21236;BME280;10775;42.678;26.324;2023-03-13T04:17:30;99161.28;;;5.51;85.63
21236;BME280;10775;42.678;26.324;2023-03-13T04:19:56;99166.44;;;5.47;80.61
21236;BME280;10775;42.678;26.324;2023-03-13T04:22:21;99164.78;;;5.53;83.38
21236;BME280;10775;42.678;26.324;2023-03-13T04:24:46;99162.13;;;5.45;76.88
21236;BME280;10775;42.678;26.324;2023-03-13T04:27:12;99166.31;;;5.30;70.47
21236;BME280;10775;42.678;26.324;2023-03-13T04:29:37;99173.41;;;5.51;88.09
21236;BME280;10775;42.678;26.324;2023-03-13T04:32:03;99183.97;;;5.75;88.94
21236;BME280;10775;42.678;26.324;2023-03-13T04:34:28;99182.28;;;5.85;92.75
21236;BME280;10775;42.678;26.324;2023-03-13T04:36:54;99182.25;;;5.79;91.61
21236;BME280;10775;42.678;26.324;2023-03-13T04:39:19;99190.88;;;5.76;94.53
21236;BME280;10775;42.678;26.324;2023-03-13T04:41:50;99190.84;;;5.72;88.75
21236;BME280;10775;42.678;26.324;2023-03-13T04:44:16;99195.13;;;5.65;89.40
21236;BME280;10775;42.678;26.324;2023-03-13T04:46:41;99195.84;;;5.47;86.71
21236;BME280;10775;42.678;26.324;2023-03-13T04:49:07;99195.63;;;5.22;85.58
21236;BME280;10775;42.678;26.324;2023-03-13T04:51:32;99213.78;;;5.24;92.75
21236;BME280;10775;42.678;26.324;2023-03-13T04:53:58;99214.72;;;5.34;93.58
21236;BME280;10775;42.678;26.324;2023-03-13T04:56:24;99215.72;;;5.47;97.22
21236;BME280;10775;42.678;26.324;2023-03-13T04:58:50;99220.84;;;5.37;95.70
21236;BME280;10775;42.678;26.324;2023-03-13T05:01:16;99216.56;;;5.42;95.82
21236;BME280;10775;42.678;26.324;2023-03-13T05:03:42;99227.88;;;5.54;98.05
21236;BME280;10775;42.678;26.324;2023-03-13T05:06:07;99224.53;;;5.67;97.20
21236;BME280;10775;42.678;26.324;2023-03-13T05:08:33;99223.69;;;5.70;97.51
21236;BME280;10775;42.678;26.324;2023-03-13T05:11:00;99232.25;;;5.59;90.85
21236;BME280;10775;42.678;26.324;2023-03-13T05:13:26;99232.34;;;5.69;97.29
21236;BME280;10775;42.678;26.324;2023-03-13T05:15:51;99227.16;;;5.72;96.44
21236;BME280;10775;42.678;26.324;2023-03-13T05:18:17;99225.50;;;5.80;97.19
21236;BME280;10775;42.678;26.324;2023-03-13T05:20:42;99229.88;;;5.87;96.69
21236;BME280;10775;42.678;26.324;2023-03-13T05:23:08;99230.78;;;5.89;96.04
21236;BME280;10775;42.678;26.324;2023-03-13T05:25:33;99234.25;;;5.91;96.31
21236;BME280;10775;42.678;26.324;2023-03-13T05:27:59;99237.81;;;6.02;95.82
21236;BME280;10775;42.678;26.324;2023-03-13T05:30:24;99243.94;;;6.09;95.22
21236;BME280;10775;42.678;26.324;2023-03-13T05:32:50;99248.25;;;6.10;89.91
21236;BME280;10775;42.678;26.324;2023-03-13T05:35:15;99248.06;;;5.90;92.51
21236;BME280;10775;42.678;26.324;2023-03-13T05:37:41;99241.22;;;5.95;94.67
21236;BME280;10775;42.678;26.324;2023-03-13T05:40:08;99245.66;;;6.10;94.86
21236;BME280;10775;42.678;26.324;2023-03-13T05:42:33;99244.88;;;6.23;94.09
21236;BME280;10775;42.678;26.324;2023-03-13T05:44:59;99238.88;;;6.30;93.36
21236;BME280;10775;42.678;26.324;2023-03-13T05:47:24;99239.78;;;6.34;93.00
21236;BME280;10775;42.678;26.324;2023-03-13T05:49:50;99245.00;;;6.40;92.61
21236;BME280;10775;42.678;26.324;2023-03-13T05:52:15;99244.16;;;6.43;92.13
21236;BME280;10775;42.678;26.324;2023-03-13T05:54:41;99245.03;;;6.48;91.28
21236;BME280;10775;42.678;26.324;2023-03-13T05:57:06;99248.53;;;6.50;90.66
21236;BME280;10775;42.678;26.324;2023-03-13T05:59:32;99258.00;;;6.46;91.16
21236;BME280;10775;42.678;26.324;2023-03-13T06:01:57;99249.41;;;6.55;88.99
21236;BME280;10775;42.678;26.324;2023-03-13T06:04:22;99250.25;;;6.48;87.34
21236;BME280;10775;42.678;26.324;2023-03-13T06:06:48;99248.47;;;6.41;81.44
21236;BME280;10775;42.678;26.324;2023-03-13T06:09:13;99263.25;;;6.56;89.86
21236;BME280;10775;42.678;26.324;2023-03-13T06:11:39;99253.81;;;6.68;89.49
21236;BME280;10775;42.678;26.324;2023-03-13T06:14:06;99256.44;;;6.76;89.33
21236;BME280;10775;42.678;26.324;2023-03-13T06:16:31;99253.03;;;6.86;86.14
21236;BME280;10775;42.678;26.324;2023-03-13T06:18:57;99261.66;;;6.81;87.07
21236;BME280;10775;42.678;26.324;2023-03-13T06:21:23;99262.59;;;6.93;87.07
21236;BME280;10775;42.678;26.324;2023-03-13T06:23:48;99258.25;;;7.00;86.80
21236;BME280;10775;42.678;26.324;2023-03-13T06:26:14;99266.94;;;7.01;86.61
21236;BME280;10775;42.678;26.324;2023-03-13T06:28:39;99265.22;;;7.07;82.27
21236;BME280;10775;42.678;26.324;2023-03-13T06:31:06;99266.13;;;7.14;85.45
21236;BME280;10775;42.678;26.324;2023-03-13T06:33:32;99270.44;;;7.18;85.73
21236;BME280;10775;42.678;26.324;2023-03-13T06:35:59;99272.28;;;7.39;84.60
21236;BME280;10775;42.678;26.324;2023-03-13T06:38:24;99278.34;;;7.50;83.59
21236;BME280;10775;42.678;26.324;2023-03-13T06:40:50;99281.84;;;7.66;83.49
21236;BME280;10775;42.678;26.324;2023-03-13T06:43:16;99283.59;;;7.84;84.22
21236;BME280;10775;42.678;26.324;2023-03-13T06:45:41;99283.59;;;8.01;84.39
21236;BME280;10775;42.678;26.324;2023-03-13T06:48:07;99285.34;;;7.99;85.07
21236;BME280;10775;42.678;26.324;2023-03-13T06:50:36;99286.19;;;8.15;86.22
21236;BME280;10775;42.678;26.324;2023-03-13T06:53:01;99289.69;;;8.26;86.27
21236;BME280;10775;42.678;26.324;2023-03-13T06:55:27;99284.44;;;8.35;85.70
21236;BME280;10775;42.678;26.324;2023-03-13T06:57:52;99288.81;;;8.47;86.75
21236;BME280;10775;42.678;26.324;2023-03-13T07:00:19;99284.44;;;8.52;84.60
21236;BME280;10775;42.678;26.324;2023-03-13T07:02:44;99290.53;;;8.54;85.82
21236;BME280;10775;42.678;26.324;2023-03-13T07:05:10;99289.63;;;8.67;86.41
21236;BME280;10775;42.678;26.324;2023-03-13T07:07:35;99291.34;;;8.75;86.55
21236;BME280;10775;42.678;26.324;2023-03-13T07:10:01;99288.69;;;8.93;85.20
21236;BME280;10775;42.678;26.324;2023-03-13T07:12:26;99279.94;;;8.97;85.05
21236;BME280;10775;42.678;26.324;2023-03-13T07:14:52;99281.66;;;9.09;83.99
21236;BME280;10775;42.678;26.324;2023-03-13T07:17:18;99272.88;;;9.22;85.06
21236;BME280;10775;42.678;26.324;2023-03-13T07:19:43;99275.81;;;10.04;78.78
21236;BME280;10775;42.678;26.324;2023-03-13T07:22:08;99262.31;;;12.39;75.80
21236;BME280;10775;42.678;26.324;2023-03-13T07:24:34;99269.75;;;13.49;64.35
21236;BME280;10775;42.678;26.324;2023-03-13T07:27:00;99278.53;;;13.85;63.53
21236;BME280;10775;42.678;26.324;2023-03-13T07:29:25;99268.78;;;13.90;60.44
21236;BME280;10775;42.678;26.324;2023-03-13T07:31:51;99262.31;;;14.40;66.08
21236;BME280;10775;42.678;26.324;2023-03-13T07:34:16;99261.00;;;15.18;54.39
21236;BME280;10775;42.678;26.324;2023-03-13T07:36:41;99262.69;;;15.51;56.17
21236;BME280;10775;42.678;26.324;2023-03-13T07:39:08;99256.19;;;15.62;56.38
21236;BME280;10775;42.678;26.324;2023-03-13T07:41:33;99269.31;;;15.92;58.75
21236;BME280;10775;42.678;26.324;2023-03-13T07:43:59;99265.63;;;16.24;51.27
21236;BME280;10775;42.678;26.324;2023-03-13T07:46:24;99257.34;;;15.82;56.89
21236;BME280;10775;42.678;26.324;2023-03-13T07:48:50;99253.19;;;15.75;56.43
21236;BME280;10775;42.678;26.324;2023-03-13T07:51:22;99249.94;;;15.37;53.06
21236;BME280;10775;42.678;26.324;2023-03-13T07:53:49;99250.59;;;14.84;47.51
21236;BME280;10775;42.678;26.324;2023-03-13T07:56:17;99250.13;;;15.01;52.28
21236;BME280;10775;42.678;26.324;2023-03-13T07:58:44;99252.75;;;15.01;51.79
21236;BME280;10775;42.678;26.324;2023-03-13T08:01:10;99244.75;;;15.04;54.12
21236;BME280;10775;42.678;26.324;2023-03-13T08:03:37;99260.41;;;14.77;55.72
21236;BME280;10775;42.678;26.324;2023-03-13T08:06:05;99251.53;;;15.72;51.06
21236;BME280;10775;42.678;26.324;2023-03-13T08:08:31;99262.84;;;14.85;44.31
21236;BME280;10775;42.678;26.324;2023-03-13T08:11:09;99263.00;;;15.10;51.75
21236;BME280;10775;42.678;26.324;2023-03-13T08:13:35;99253.47;;;15.64;46.83
21236;BME280;10775;42.678;26.324;2023-03-13T08:16:09;99264.09;;;16.17;55.77
21236;BME280;10775;42.678;26.324;2023-03-13T08:18:37;99259.16;;;16.58;51.01
21236;BME280;10775;42.678;26.324;2023-03-13T08:21:06;99264.56;;;16.55;53.31
21236;BME280;10775;42.678;26.324;2023-03-13T08:23:32;99260.34;;;16.24;52.58
21236;BME280;10775;42.678;26.324;2023-03-13T08:26:09;99256.41;;;16.61;48.56
21236;BME280;10775;42.678;26.324;2023-03-13T08:28:35;99255.34;;;16.67;47.20
21236;BME280;10775;42.678;26.324;2023-03-13T08:33:32;99253.81;;;15.83;51.55
21236;BME280;10775;42.678;26.324;2023-03-13T08:35:57;99260.84;;;16.09;47.44
21236;BME280;10775;42.678;26.324;2023-03-13T08:38:23;99255.00;;;15.99;53.51
21236;BME280;10775;42.678;26.324;2023-03-13T08:40:48;99254.41;;;16.18;51.46
21236;BME280;10775;42.678;26.324;2023-03-13T08:43:14;99256.03;;;16.22;44.17
21236;BME280;10775;42.678;26.324;2023-03-13T08:45:40;99251.78;;;15.91;54.59
21236;BME280;10775;42.678;26.324;2023-03-13T08:48:05;99250.00;;;16.18;40.43
21236;BME280;10775;42.678;26.324;2023-03-13T08:50:31;99246.72;;;15.85;54.20
21236;BME280;10775;42.678;26.324;2023-03-13T08:52:56;99245.97;;;16.33;51.22
21236;BME280;10775;42.678;26.324;2023-03-13T08:55:21;99244.03;;;16.63;53.30
21236;BME280;10775;42.678;26.324;2023-03-13T08:57:47;99244.16;;;16.60;53.85
21236;BME280;10775;42.678;26.324;2023-03-13T09:00:13;99240.09;;;16.75;56.24
21236;BME280;10775;42.678;26.324;2023-03-13T09:02:39;99244.16;;;16.85;56.01
21236;BME280;10775;42.678;26.324;2023-03-13T09:05:05;99245.34;;;16.51;52.24
21236;BME280;10775;42.678;26.324;2023-03-13T09:07:31;99234.94;;;16.47;53.07
21236;BME280;10775;42.678;26.324;2023-03-13T09:09:56;99244.81;;;15.89;48.68
21236;BME280;10775;42.678;26.324;2023-03-13T09:12:21;99246.72;;;15.85;54.17
21236;BME280;10775;42.678;26.324;2023-03-13T09:14:47;99248.72;;;15.77;47.35
21236;BME280;10775;42.678;26.324;2023-03-13T09:17:12;99235.28;;;15.84;54.52
21236;BME280;10775;42.678;26.324;2023-03-13T09:19:38;99232.00;;;16.04;53.01
21236;BME280;10775;42.678;26.324;2023-03-13T09:22:03;99224.50;;;16.44;50.42
21236;BME280;10775;42.678;26.324;2023-03-13T09:24:29;99230.94;;;16.35;54.97
21236;BME280;10775;42.678;26.324;2023-03-13T09:26:54;99224.59;;;15.89;54.15
21236;BME280;10775;42.678;26.324;2023-03-13T09:29:20;99220.38;;;16.10;56.18
21236;BME280;10775;42.678;26.324;2023-03-13T09:31:45;99225.56;;;16.13;47.89
21236;BME280;10775;42.678;26.324;2023-03-13T09:34:11;99227.72;;;16.27;50.62
21236;BME280;10775;42.678;26.324;2023-03-13T09:36:36;99222.00;;;16.39;51.79
21236;BME280;10775;42.678;26.324;2023-03-13T09:39:02;99225.41;;;16.43;54.81
21236;BME280;10775;42.678;26.324;2023-03-13T09:41:56;99228.72;;;16.23;46.24
21236;BME280;10775;42.678;26.324;2023-03-13T09:44:31;99237.16;;;16.07;48.56
21236;BME280;10775;42.678;26.324;2023-03-13T09:47:05;99236.16;;;16.12;43.12
21236;BME280;10775;42.678;26.324;2023-03-13T09:54:40;99224.03;;;16.56;49.19
21236;BME280;10775;42.678;26.324;2023-03-13T09:57:39;99225.47;;;16.41;52.57
21236;BME280;10775;42.678;26.324;2023-03-13T10:00:17;99225.22;;;16.22;44.42
21236;BME280;10775;42.678;26.324;2023-03-13T10:02:54;99220.97;;;16.43;52.19
21236;BME280;10775;42.678;26.324;2023-03-13T10:05:27;99218.16;;;15.71;48.57
21236;BME280;10775;42.678;26.324;2023-03-13T10:07:59;99201.88;;;15.29;37.78
21236;BME280;10775;42.678;26.324;2023-03-13T10:13:53;99200.00;;;15.60;42.42
21236;BME280;10775;42.678;26.324;2023-03-13T10:16:24;99188.59;;;15.88;51.81
21236;BME280;10775;42.678;26.324;2023-03-13T10:18:54;99198.63;;;15.77;42.43
21236;BME280;10775;42.678;26.324;2023-03-13T10:21:22;99204.84;;;15.74;44.69
21236;BME280;10775;42.678;26.324;2023-03-13T10:23:51;99195.00;;;15.53;49.60
21236;BME280;10775;42.678;26.324;2023-03-13T10:26:23;99194.25;;;15.77;46.21
21236;BME280;10775;42.678;26.324;2023-03-13T10:28:50;99186.22;;;15.80;47.24
21236;BME280;10775;42.678;26.324;2023-03-13T10:31:31;99190.53;;;15.83;42.44
21236;BME280;10775;42.678;26.324;2023-03-13T10:34:10;99187.13;;;15.79;43.71
21236;BME280;10775;42.678;26.324;2023-03-13T10:36:43;99175.97;;;15.43;36.71
21236;BME280;10775;42.678;26.324;2023-03-13T10:39:21;99181.44;;;15.37;43.66
21236;BME280;10775;42.678;26.324;2023-03-13T10:41:48;99183.66;;;15.49;43.98
21236;BME280;10775;42.678;26.324;2023-03-13T10:44:17;99179.81;;;15.33;45.67
21236;BME280;10775;42.678;26.324;2023-03-13T10:46:45;99178.50;;;15.46;41.15
21236;BME280;10775;42.678;26.324;2023-03-13T10:49:16;99177.56;;;14.61;36.77
21236;BME280;10775;42.678;26.324;2023-03-13T10:51:54;99180.63;;;15.07;46.71
21236;BME280;10775;42.678;26.324;2023-03-13T10:57:06;99173.84;;;14.98;31.77
21236;BME280;10775;42.678;26.324;2023-03-13T10:59:32;99168.22;;;15.38;33.45
21236;BME280;10775;42.678;26.324;2023-03-13T11:02:32;99162.13;;;15.91;45.78
21236;BME280;10775;42.678;26.324;2023-03-13T11:04:59;99158.13;;;15.79;42.75
21236;BME280;10775;42.678;26.324;2023-03-13T11:07:33;99163.00;;;15.63;42.09
21236;BME280;10775;42.678;26.324;2023-03-13T11:12:26;99162.81;;;14.85;42.70
21236;BME280;10775;42.678;26.324;2023-03-13T11:14:57;99172.75;;;15.05;39.89
21236;BME280;10775;42.678;26.324;2023-03-13T11:20:26;99159.06;;;15.22;42.52
21236;BME280;10775;42.678;26.324;2023-03-13T11:41:59;99123.28;;;15.70;41.14
21236;BME280;10775;42.678;26.324;2023-03-13T11:47:11;99114.00;;;15.84;39.85
21236;BME280;10775;42.678;26.324;2023-03-13T11:55:27;99111.38;;;15.03;37.18
21236;BME280;10775;42.678;26.324;2023-03-13T12:00:56;99111.22;;;15.36;41.21
21236;BME280;10775;42.678;26.324;2023-03-13T12:03:58;99107.09;;;15.54;43.93
21236;BME280;10775;42.678;26.324;2023-03-13T12:06:35;99099.47;;;14.91;40.94
21236;BME280;10775;42.678;26.324;2023-03-13T12:09:04;99096.28;;;14.80;43.88
21236;BME280;10775;42.678;26.324;2023-03-13T12:11:40;99094.06;;;14.96;41.25
21236;BME280;10775;42.678;26.324;2023-03-13T12:14:14;99083.25;;;15.32;41.66
21236;BME280;10775;42.678;26.324;2023-03-13T12:17:07;99088.53;;;15.32;43.30
21236;BME280;10775;42.678;26.324;2023-03-13T12:20:18;99093.22;;;15.22;41.64
21236;BME280;10775;42.678;26.324;2023-03-13T12:23:00;99087.75;;;15.28;44.94
21236;BME280;10775;42.678;26.324;2023-03-13T12:25:37;99082.03;;;15.15;37.78
21236;BME280;10775;42.678;26.324;2023-03-13T12:28:28;99078.38;;;15.19;37.59
21236;BME280;10775;42.678;26.324;2023-03-13T12:33:39;99081.38;;;15.35;41.12
21236;BME280;10775;42.678;26.324;2023-03-13T12:36:32;99076.84;;;13.94;31.94
21236;BME280;10775;42.678;26.324;2023-03-13T12:42:54;99070.16;;;15.29;38.99
21236;BME280;10775;42.678;26.324;2023-03-13T12:45:17;99075.81;;;14.30;33.19
21236;BME280;10775;42.678;26.324;2023-03-13T12:59:11;99074.66;;;14.09;40.11
21236;BME280;10775;42.678;26.324;2023-03-13T13:01:41;99078.88;;;14.76;41.48
21236;BME280;10775;42.678;26.324;2023-03-13T13:04:11;99079.47;;;15.14;45.94
21236;BME280;10775;42.678;26.324;2023-03-13T13:06:51;99078.06;;;15.02;37.40
21236;BME280;10775;42.678;26.324;2023-03-13T13:09:36;99082.97;;;14.86;41.17
21236;BME280;10775;42.678;26.324;2023-03-13T13:12:21;99092.72;;;14.53;39.59
21236;BME280;10775;42.678;26.324;2023-03-13T13:17:23;99088.22;;;14.56;46.61
21236;BME280;10775;42.678;26.324;2023-03-13T13:19:51;99090.59;;;14.34;45.45
21236;BME280;10775;42.678;26.324;2023-03-13T13:30:21;99087.69;;;14.44;46.54
21236;BME280;10775;42.678;26.324;2023-03-13T13:32:51;99089.94;;;14.26;40.36
21236;BME280;10775;42.678;26.324;2023-03-13T13:35:43;99090.06;;;13.58;41.86
21236;BME280;10775;42.678;26.324;2023-03-13T13:43:24;99094.09;;;13.71;47.70
21236;BME280;10775;42.678;26.324;2023-03-13T13:46:23;99083.94;;;13.90;46.56
21236;BME280;10775;42.678;26.324;2023-03-13T13:51:39;99080.22;;;13.99;49.14
21236;BME280;10775;42.678;26.324;2023-03-13T13:57:07;99104.13;;;13.18;42.81
21236;BME280;10775;42.678;26.324;2023-03-13T13:59:45;99091.88;;;13.54;50.19
21236;BME280;10775;42.678;26.324;2023-03-13T14:02:15;99087.50;;;13.55;51.10
21236;BME280;10775;42.678;26.324;2023-03-13T14:07:23;99093.56;;;13.21;47.02
21236;BME280;10775;42.678;26.324;2023-03-13T14:10:05;99083.28;;;13.82;51.64
21236;BME280;10775;42.678;26.324;2023-03-13T14:12:35;99088.13;;;13.97;52.80
21236;BME280;10775;42.678;26.324;2023-03-13T14:20:25;99079.28;;;13.67;50.45
21236;BME280;10775;42.678;26.324;2023-03-13T14:22:55;99082.97;;;13.61;48.92
21236;BME280;10775;42.678;26.324;2023-03-13T14:25:23;99084.91;;;13.17;47.77
21236;BME280;10775;42.678;26.324;2023-03-13T14:27:49;99082.44;;;13.47;55.58
21236;BME280;10775;42.678;26.324;2023-03-13T14:30:18;99076.94;;;13.58;57.13
21236;BME280;10775;42.678;26.324;2023-03-13T14:32:44;99083.31;;;13.47;53.66
21236;BME280;10775;42.678;26.324;2023-03-13T14:35:14;99085.88;;;13.51;57.31
21236;BME280;10775;42.678;26.324;2023-03-13T14:37:45;99097.00;;;13.23;53.86
21236;BME280;10775;42.678;26.324;2023-03-13T14:42:49;99100.75;;;13.13;57.20
21236;BME280;10775;42.678;26.324;2023-03-13T14:47:50;99089.97;;;13.25;58.37
21236;BME280;10775;42.678;26.324;2023-03-13T14:50:17;99100.34;;;13.31;59.95
21236;BME280;10775;42.678;26.324;2023-03-13T14:52:45;99093.84;;;12.70;53.33
21236;BME280;10775;42.678;26.324;2023-03-13T14:58:19;99104.16;;;13.16;57.21
21236;BME280;10775;42.678;26.324;2023-03-13T15:00:46;99097.94;;;13.20;61.71